Time;durP1;ratioP1;P1;durP2;ratioP2;P2;SDS_P1;SDS_P2;PMS_P1;PMS_P2;Temp;Humidity;BMP_temperature;BMP_pressure;BME280_temperature;BME280_humidity;BME280_pressure;Samples;Min_cycle;Max_cycle;Signal;HPM_P1;HPM_P2
2021/08/18 00:00:15;;;;;;;14.52;13.02;;;;;;;;;;5088986;28;20842;-81
2021/08/18 00:02:41;;;;;;;14.27;12.77;;;;;;;;;;5089210;28;20399;-84
2021/08/18 00:05:08;;;;;;;14.07;12.60;;;;;;;;;;5088984;28;20387;-83
2021/08/18 00:07:34;;;;;;;13.98;12.63;;;;;;;;;;5088885;28;20372;-82
2021/08/18 00:09:59;;;;;;;13.60;12.27;;;;;;;;;;5070463;28;20383;-84
2021/08/18 00:12:26;;;;;;;14.82;13.30;;;;;;;;;;5070609;28;20849;-83
2021/08/18 00:14:52;;;;;;;14.50;13.10;;;;;;;;;;5089000;28;20377;-85
2021/08/18 00:17:19;;;;;;;16.77;13.90;;;;;;;;;;5088986;28;20369;-83
2021/08/18 00:19:44;;;;;;;14.68;13.15;;;;;;;;;;5088954;28;20368;-83
2021/08/18 00:22:11;;;;;;;15.73;14.00;;;;;;;;;;5070511;28;20446;-83
2021/08/18 00:24:36;;;;;;;15.82;14.23;;;;;;;;;;5088760;28;20368;-83
2021/08/18 00:27:03;;;;;;;15.95;14.23;;;;;;;;;;5070782;28;20387;-83
2021/08/18 00:29:29;;;;;;;16.13;14.23;;;;;;;;;;5090660;28;20365;-79
2021/08/18 00:31:55;;;;;;;15.85;14.35;;;;;;;;;;5092666;28;20734;-80
2021/08/18 00:34:21;;;;;;;15.93;14.35;;;;;;;;;;5092903;28;20858;-85
2021/08/18 00:36:47;;;;;;;16.80;14.38;;;;;;;;;;5092791;28;20371;-78
2021/08/18 00:39:13;;;;;;;15.95;14.32;;;;;;;;;;5074564;28;20380;-83
2021/08/18 00:41:39;;;;;;;16.97;15.10;;;;;;;;;;5074135;28;20446;-82
2021/08/18 00:44:05;;;;;;;17.37;15.47;;;;;;;;;;5092918;28;20472;-83
2021/08/18 00:46:31;;;;;;;17.48;15.75;;;;;;;;;;5074303;28;20384;-84
2021/08/18 00:48:57;;;;;;;16.58;15.00;;;;;;;;;;5092232;28;20389;-83
2021/08/18 00:51:23;;;;;;;17.13;15.43;;;;;;;;;;5074349;28;20391;-84
2021/08/18 00:53:50;;;;;;;18.33;16.52;;;;;;;;;;5073909;28;20384;-86
2021/08/18 00:56:16;;;;;;;16.83;15.15;;;;;;;;;;5092266;28;20446;-84
2021/08/18 00:58:42;;;;;;;18.23;16.42;;;;;;;;;;5073955;28;20878;-83
2021/08/18 01:01:08;;;;;;;18.55;16.67;;;;;;;;;;5092020;28;20372;-83
2021/08/18 01:03:34;;;;;;;17.77;16.00;;;;;;;;;;5073966;28;20383;-82
2021/08/18 01:06:00;;;;;;;18.02;16.33;;;;;;;;;;5092207;28;20387;-83
2021/08/18 01:08:26;;;;;;;17.75;15.98;;;;;;;;;;5091961;28;20699;-83
2021/08/18 01:10:52;;;;;;;18.02;16.33;;;;;;;;;;5073807;28;20533;-83
2021/08/18 01:13:20;;;;;;;18.50;16.58;;;;;;;;;;5073534;28;20384;-84
2021/08/18 01:15:46;;;;;;;17.73;15.90;;;;;;;;;;5073925;28;20388;-82
2021/08/18 01:18:12;;;;;;;18.02;16.20;;;;;;;;;;5092025;28;20380;-80
2021/08/18 01:20:42;;;;;;;17.83;16.15;;;;;;;;;;5073493;28;20463;-83
2021/08/18 01:23:10;;;;;;;18.20;16.57;;;;;;;;;;5091731;28;20402;-85
2021/08/18 01:25:36;;;;;;;17.25;15.60;;;;;;;;;;5091901;28;20371;-82
2021/08/18 01:28:03;;;;;;;17.75;15.93;;;;;;;;;;5073362;28;20543;-83
2021/08/18 01:30:30;;;;;;;16.33;14.87;;;;;;;;;;5073099;28;20384;-80
2021/08/18 01:32:58;;;;;;;17.95;16.33;;;;;;;;;;5091736;28;20365;-80
2021/08/18 01:35:26;;;;;;;18.77;17.00;;;;;;;;;;5091644;28;20372;-82
2021/08/18 01:37:52;;;;;;;17.92;16.23;;;;;;;;;;5091340;28;20854;-80
2021/08/18 01:40:19;;;;;;;17.15;15.45;;;;;;;;;;5091372;28;20389;-85
2021/08/18 01:42:45;;;;;;;17.20;15.57;;;;;;;;;;5091496;28;20874;-83
2021/08/18 01:45:11;;;;;;;17.80;16.10;;;;;;;;;;5091573;28;20392;-84
2021/08/18 01:47:38;;;;;;;17.87;16.17;;;;;;;;;;5072810;28;20790;-84
2021/08/18 01:50:04;;;;;;;17.75;16.05;;;;;;;;;;5091488;28;20369;-80
2021/08/18 01:52:30;;;;;;;16.45;14.85;;;;;;;;;;5091260;28;20711;-82
2021/08/18 01:54:56;;;;;;;16.27;14.77;;;;;;;;;;5091402;28;20434;-80
2021/08/18 01:57:22;;;;;;;17.47;15.67;;;;;;;;;;5091364;28;20376;-82
2021/08/18 01:59:48;;;;;;;18.63;16.83;;;;;;;;;;5073115;28;21169;-81
2021/08/18 02:02:14;;;;;;;17.70;16.00;;;;;;;;;;5091052;28;20404;-82
2021/08/18 02:04:40;;;;;;;17.33;15.77;;;;;;;;;;5091050;28;20376;-84
2021/08/18 02:07:06;;;;;;;18.92;17.02;;;;;;;;;;5091093;28;20367;-82
2021/08/18 02:09:32;;;;;;;17.73;16.13;;;;;;;;;;5090798;28;20437;-80
2021/08/18 02:11:58;;;;;;;18.92;17.13;;;;;;;;;;5091041;28;20396;-80
2021/08/18 02:14:24;;;;;;;18.20;16.50;;;;;;;;;;5072472;28;20377;-85
2021/08/18 02:16:50;;;;;;;18.65;16.73;;;;;;;;;;5072696;28;20376;-80
2021/08/18 02:19:16;;;;;;;18.45;16.73;;;;;;;;;;5072545;28;20380;-83
2021/08/18 02:21:42;;;;;;;18.15;16.55;;;;;;;;;;5090828;28;20403;-81
2021/08/18 02:24:08;;;;;;;18.48;16.63;;;;;;;;;;5090829;28;20415;-83
2021/08/18 02:26:34;;;;;;;18.05;16.40;;;;;;;;;;5091052;28;20400;-81
2021/08/18 02:29:00;;;;;;;17.45;15.63;;;;;;;;;;5072119;28;20428;-81
2021/08/18 02:31:27;;;;;;;16.85;15.25;;;;;;;;;;5090569;28;20376;-84
2021/08/18 02:33:53;;;;;;;17.10;15.55;;;;;;;;;;5090508;28;20441;-85
2021/08/18 02:36:19;;;;;;;18.38;16.67;;;;;;;;;;5090754;28;20715;-81
2021/08/18 02:38:46;;;;;;;18.02;16.35;;;;;;;;;;5090421;28;20373;-81
2021/08/18 02:41:12;;;;;;;17.65;16.00;;;;;;;;;;5090289;28;20364;-80
2021/08/18 02:43:38;;;;;;;16.58;15.02;;;;;;;;;;5090405;28;20368;-81
2021/08/18 02:46:04;;;;;;;16.92;15.35;;;;;;;;;;5072038;28;20739;-83
2021/08/18 02:48:30;;;;;;;16.70;15.13;;;;;;;;;;5071774;28;20376;-82
2021/08/18 02:50:57;;;;;;;16.73;15.02;;;;;;;;;;5090007;28;20800;-84
2021/08/18 02:53:24;;;;;;;16.98;15.27;;;;;;;;;;5089999;28;20380;-81
2021/08/18 02:55:50;;;;;;;16.45;14.85;;;;;;;;;;5090358;28;20365;-84
2021/08/18 02:58:16;;;;;;;16.33;14.82;;;;;;;;;;5090132;28;20372;-80
2021/08/18 03:00:42;;;;;;;17.48;14.90;;;;;;;;;;5071613;28;20387;-82
2021/08/18 03:03:08;;;;;;;18.20;15.77;;;;;;;;;;5089629;28;20874;-83
2021/08/18 03:05:34;;;;;;;16.92;15.32;;;;;;;;;;5089773;28;20364;-82
2021/08/18 03:08:00;;;;;;;16.77;15.20;;;;;;;;;;5071371;28;20368;-85
2021/08/18 03:10:26;;;;;;;15.85;14.32;;;;;;;;;;5072422;28;20373;-84
2021/08/18 03:12:52;;;;;;;17.77;15.88;;;;;;;;;;5071767;28;20414;-82
2021/08/18 03:15:18;;;;;;;17.08;15.38;;;;;;;;;;5089544;28;20361;-82
2021/08/18 03:17:44;;;;;;;18.15;16.25;;;;;;;;;;5089735;28;20815;-84
2021/08/18 03:20:10;;;;;;;16.95;15.35;;;;;;;;;;5071373;28;20377;-85
2021/08/18 03:22:36;;;;;;;17.15;15.57;;;;;;;;;;5089674;28;20453;-83
2021/08/18 03:25:02;;;;;;;17.13;15.52;;;;;;;;;;5071194;28;20747;-81
2021/08/18 03:27:28;;;;;;;17.98;16.20;;;;;;;;;;5089469;28;20718;-83
2021/08/18 03:29:54;;;;;;;17.50;15.90;;;;;;;;;;5089665;28;20851;-82
2021/08/18 03:32:20;;;;;;;18.58;16.77;;;;;;;;;;5089782;28;20376;-82
2021/08/18 03:34:46;;;;;;;17.05;15.45;;;;;;;;;;5089302;28;20388;-80
2021/08/18 03:37:12;;;;;;;17.13;15.52;;;;;;;;;;5089397;28;20383;-83
2021/08/18 03:39:39;;;;;;;17.90;16.20;;;;;;;;;;5071200;28;20870;-85
2021/08/18 03:42:05;;;;;;;18.15;16.27;;;;;;;;;;5089372;28;20388;-82
2021/08/18 03:44:31;;;;;;;17.55;15.85;;;;;;;;;;5071040;28;20385;-84
2021/08/18 03:46:57;;;;;;;17.35;15.77;;;;;;;;;;5070927;28;20376;-81
2021/08/18 03:49:23;;;;;;;16.65;15.10;;;;;;;;;;5070788;28;20408;-81
2021/08/18 03:51:50;;;;;;;17.50;15.80;;;;;;;;;;5089005;28;20371;-81
2021/08/18 03:54:16;;;;;;;16.80;15.20;;;;;;;;;;5070564;28;20396;-83
2021/08/18 03:56:42;;;;;;;16.98;15.38;;;;;;;;;;5089152;28;20862;-80
2021/08/18 03:59:08;;;;;;;15.80;14.40;;;;;;;;;;5070762;28;20408;-81
2021/08/18 04:01:34;;;;;;;16.15;14.68;;;;;;;;;;5088845;28;20399;-82
2021/08/18 04:04:00;;;;;;;16.45;14.98;;;;;;;;;;5070589;28;20839;-85
2021/08/18 04:06:26;;;;;;;16.63;15.02;;;;;;;;;;5089038;28;20456;-84
2021/08/18 04:08:52;;;;;;;16.57;15.07;;;;;;;;;;5089262;28;20376;-85
2021/08/18 04:11:18;;;;;;;18.03;16.13;;;;;;;;;;5088956;28;20834;-83
2021/08/18 04:13:44;;;;;;;17.37;15.57;;;;;;;;;;5088817;28;20356;-83
2021/08/18 04:16:10;;;;;;;17.65;15.95;;;;;;;;;;5074378;28;20558;-83
2021/08/18 04:18:36;;;;;;;17.23;15.63;;;;;;;;;;5057783;28;20374;-81
2021/08/18 04:21:02;;;;;;;17.58;15.60;;;;;;;;;;5056717;28;20376;-84
2021/08/18 04:23:28;;;;;;;16.67;14.93;;;;;;;;;;5058594;28;20875;-85
2021/08/18 04:25:54;;;;;;;15.80;14.30;;;;;;;;;;5045981;28;20382;-80
2021/08/18 04:28:20;;;;;;;16.95;15.20;;;;;;;;;;5063678;28;20435;-83
2021/08/18 04:30:46;;;;;;;16.50;14.80;;;;;;;;;;5064725;28;20520;-82
2021/08/18 04:33:12;;;;;;;16.13;14.43;;;;;;;;;;5056527;28;20451;-81
2021/08/18 04:35:38;;;;;;;16.80;15.05;;;;;;;;;;5063639;28;20377;-81
2021/08/18 04:38:14;;;;;;;16.83;15.13;;;;;;;;;;5052148;28;20383;-84
2021/08/18 04:40:40;;;;;;;16.63;14.93;;;;;;;;;;5065183;28;20386;-85
2021/08/18 04:43:06;;;;;;;15.95;14.38;;;;;;;;;;5050197;28;20750;-85
2021/08/18 04:45:32;;;;;;;15.93;14.32;;;;;;;;;;5048715;28;20426;-83
2021/08/18 04:47:58;;;;;;;14.82;13.32;;;;;;;;;;5064360;28;20386;-83
2021/08/18 04:50:25;;;;;;;14.77;13.18;;;;;;;;;;5064481;28;20370;-86
2021/08/18 04:52:51;;;;;;;14.43;13.00;;;;;;;;;;5047465;28;20386;-82
2021/08/18 04:55:17;;;;;;;14.52;13.00;;;;;;;;;;5057742;28;20820;-81
2021/08/18 04:57:55;;;;;;;14.40;12.90;;;;;;;;;;5057635;28;20453;-84
2021/08/18 05:00:21;;;;;;;14.82;13.18;;;;;;;;;;5052999;28;20366;-83
2021/08/18 05:02:47;;;;;;;14.13;12.73;;;;;;;;;;5046690;28;20410;-83
2021/08/18 05:05:13;;;;;;;13.57;12.18;;;;;;;;;;5047474;28;20385;-81
2021/08/18 05:07:39;;;;;;;13.77;12.38;;;;;;;;;;5047232;28;20378;-84
2021/08/18 05:10:06;;;;;;;15.93;13.70;;;;;;;;;;5065368;28;20856;-81
2021/08/18 05:12:32;;;;;;;14.07;12.68;;;;;;;;;;5049430;28;20383;-85
2021/08/18 05:14:58;;;;;;;13.45;12.05;;;;;;;;;;5067691;28;20423;-85
2021/08/18 05:17:24;;;;;;;14.60;13.10;;;;;;;;;;5071233;28;20366;-82
2021/08/18 05:19:50;;;;;;;14.05;12.55;;;;;;;;;;5053591;28;20381;-88
2021/08/18 05:22:16;;;;;;;14.20;12.85;;;;;;;;;;5070976;28;20902;-84
2021/08/18 05:24:42;;;;;;;15.02;13.63;;;;;;;;;;5052506;28;20412;-81
2021/08/18 05:27:08;;;;;;;13.45;12.15;;;;;;;;;;5070899;28;20787;-81
2021/08/18 05:29:34;;;;;;;13.85;12.45;;;;;;;;;;5052962;28;20389;-83
2021/08/18 05:31:59;;;;;;;13.20;11.90;;;;;;;;;;5052981;28;20378;-84
2021/08/18 05:34:25;;;;;;;13.43;11.82;;;;;;;;;;5071133;28;20717;-84
2021/08/18 05:36:51;;;;;;;12.93;11.70;;;;;;;;;;5070372;28;20415;-80
2021/08/18 05:39:17;;;;;;;13.65;12.25;;;;;;;;;;5071014;28;20378;-83
2021/08/18 05:41:43;;;;;;;14.02;12.65;;;;;;;;;;5070742;28;20406;-81
2021/08/18 05:44:09;;;;;;;12.80;11.50;;;;;;;;;;5072540;28;20377;-84
2021/08/18 05:46:35;;;;;;;12.77;11.57;;;;;;;;;;5070009;28;20378;-83
2021/08/18 05:49:01;;;;;;;13.48;12.10;;;;;;;;;;5060293;28;20894;-80
2021/08/18 05:51:27;;;;;;;13.40;12.00;;;;;;;;;;5060510;28;20381;-82
2021/08/18 05:53:53;;;;;;;12.90;11.68;;;;;;;;;;5060301;28;20457;-84
2021/08/18 05:56:19;;;;;;;12.48;11.32;;;;;;;;;;5060114;28;20382;-84
2021/08/18 05:58:46;;;;;;;12.82;11.52;;;;;;;;;;5070782;28;20378;-85
2021/08/18 06:01:12;;;;;;;12.27;11.07;;;;;;;;;;5061052;28;20838;-86
2021/08/18 06:03:38;;;;;;;12.52;11.32;;;;;;;;;;5070304;28;20409;-81
2021/08/18 06:06:04;;;;;;;12.10;10.85;;;;;;;;;;5070134;28;20376;-82
2021/08/18 06:08:30;;;;;;;11.73;10.13;;;;;;;;;;5067457;28;20437;-80
2021/08/18 06:10:56;;;;;;;11.47;10.20;;;;;;;;;;5059926;28;20394;-83
2021/08/18 06:13:23;;;;;;;10.10;9.10;;;;;;;;;;5057078;28;20385;-80
2021/08/18 06:15:49;;;;;;;10.55;9.45;;;;;;;;;;5060132;28;20497;-83
2021/08/18 06:18:15;;;;;;;9.60;8.52;;;;;;;;;;5068710;28;20382;-87
2021/08/18 06:20:41;;;;;;;8.93;8.00;;;;;;;;;;5068746;28;20378;-84
2021/08/18 06:23:07;;;;;;;9.30;7.85;;;;;;;;;;5069036;28;20435;-80
2021/08/18 06:25:33;;;;;;;8.65;7.75;;;;;;;;;;5061699;28;20869;-82
2021/08/18 06:27:59;;;;;;;8.50;6.93;;;;;;;;;;5058210;28;20370;-83
2021/08/18 06:30:25;;;;;;;9.03;7.93;;;;;;;;;;5059476;28;20386;-82
2021/08/18 06:32:51;;;;;;;8.67;7.20;;;;;;;;;;5069464;28;21254;-82
2021/08/18 06:35:17;;;;;;;8.27;6.60;;;;;;;;;;5059396;28;20787;-83
2021/08/18 06:37:43;;;;;;;7.88;5.90;;;;;;;;;;5069180;28;20370;-83
2021/08/18 06:40:10;;;;;;;7.93;6.25;;;;;;;;;;5069705;28;20367;-83
2021/08/18 06:42:46;;;;;;;7.53;5.85;;;;;;;;;;5069626;28;20401;-82
2021/08/18 06:45:13;;;;;;;6.22;4.90;;;;;;;;;;5066538;28;20378;-82
2021/08/18 06:47:39;;;;;;;7.70;5.60;;;;;;;;;;5069384;28;20413;-82
2021/08/18 06:50:05;;;;;;;7.13;5.60;;;;;;;;;;5059592;28;21072;-82
2021/08/18 06:52:31;;;;;;;7.63;5.30;;;;;;;;;;5054297;28;20532;-82
2021/08/18 06:54:58;;;;;;;9.57;5.90;;;;;;;;;;5069070;28;20394;-83
2021/08/18 06:57:24;;;;;;;8.48;5.32;;;;;;;;;;5068539;28;20389;-84
2021/08/18 06:59:50;;;;;;;8.07;5.70;;;;;;;;;;5065567;28;20428;-81
2021/08/18 07:02:16;;;;;;;6.55;5.43;;;;;;;;;;5068328;28;20402;-84
2021/08/18 07:04:42;;;;;;;7.28;5.90;;;;;;;;;;5063533;28;20378;-84
2021/08/18 07:07:08;;;;;;;6.75;6.00;;;;;;;;;;5063659;28;20894;-84
2021/08/18 07:09:34;;;;;;;7.40;6.25;;;;;;;;;;5068298;28;20378;-80
2021/08/18 07:12:01;;;;;;;7.32;5.50;;;;;;;;;;5064636;28;20377;-84
2021/08/18 07:14:27;;;;;;;6.67;5.87;;;;;;;;;;5073354;28;20376;-84
2021/08/18 07:16:53;;;;;;;7.63;5.70;;;;;;;;;;5057316;28;20395;-83
2021/08/18 07:19:19;;;;;;;7.75;5.85;;;;;;;;;;5066081;28;20541;-82
2021/08/18 07:21:45;;;;;;;6.07;5.18;;;;;;;;;;5067963;28;21142;-81
2021/08/18 07:24:11;;;;;;;7.82;5.25;;;;;;;;;;5064937;28;20388;-84
2021/08/18 07:26:37;;;;;;;7.20;5.32;;;;;;;;;;5068942;28;20724;-81
2021/08/18 07:29:03;;;;;;;6.22;5.40;;;;;;;;;;5057530;28;20398;-81
2021/08/18 07:31:29;;;;;;;5.27;4.77;;;;;;;;;;5057859;28;20414;-83
2021/08/18 07:33:55;;;;;;;5.17;4.67;;;;;;;;;;5067901;28;20380;-80
2021/08/18 07:36:21;;;;;;;7.07;4.70;;;;;;;;;;5067913;28;20382;-85
2021/08/18 07:38:47;;;;;;;6.67;5.13;;;;;;;;;;5066073;28;20464;-82
2021/08/18 07:41:13;;;;;;;6.40;4.97;;;;;;;;;;5068701;28;20456;-82
2021/08/18 07:43:39;;;;;;;7.13;4.60;;;;;;;;;;5058365;28;20744;-84
2021/08/18 07:46:05;;;;;;;6.75;4.55;;;;;;;;;;5065349;28;20363;-85
2021/08/18 07:48:31;;;;;;;7.07;4.53;;;;;;;;;;5058646;28;20401;-86
2021/08/18 07:50:58;;;;;;;5.40;4.78;;;;;;;;;;5061855;28;20453;-83
2021/08/18 07:53:24;;;;;;;6.30;4.78;;;;;;;;;;5066145;28;20503;-84
2021/08/18 07:55:49;;;;;;;5.93;4.75;;;;;;;;;;5065301;28;20406;-83
2021/08/18 07:58:15;;;;;;;5.95;4.25;;;;;;;;;;5065246;28;20443;-80
2021/08/18 08:00:41;;;;;;;4.40;4.00;;;;;;;;;;5065585;28;20882;-82
2021/08/18 08:03:08;;;;;;;4.70;3.78;;;;;;;;;;5048396;28;20406;-81
2021/08/18 08:05:36;;;;;;;5.35;4.15;;;;;;;;;;5055652;28;20410;-83
2021/08/18 08:08:03;;;;;;;4.85;4.03;;;;;;;;;;5045655;28;20795;-83
2021/08/18 08:10:29;;;;;;;4.90;3.90;;;;;;;;;;5057316;28;20489;-83
2021/08/18 08:12:55;;;;;;;4.60;3.63;;;;;;;;;;5056705;28;20530;-84
2021/08/18 08:15:21;;;;;;;5.15;4.07;;;;;;;;;;5065069;28;20377;-84
2021/08/18 08:17:47;;;;;;;4.45;3.95;;;;;;;;;;5049585;28;20413;-83
2021/08/18 08:20:13;;;;;;;4.00;3.60;;;;;;;;;;5067293;28;20440;-82
2021/08/18 08:22:40;;;;;;;4.72;3.53;;;;;;;;;;5063508;28;20405;-83
2021/08/18 08:25:06;;;;;;;4.93;4.07;;;;;;;;;;5057904;28;20380;-79
2021/08/18 08:27:32;;;;;;;5.60;3.70;;;;;;;;;;5067956;28;20424;-82
2021/08/18 08:29:58;;;;;;;3.90;3.47;;;;;;;;;;5067460;28;20374;-81
2021/08/18 08:32:24;;;;;;;5.05;3.55;;;;;;;;;;5057158;28;20425;-80
2021/08/18 08:34:50;;;;;;;3.83;3.28;;;;;;;;;;5059353;28;20386;-82
2021/08/18 08:37:18;;;;;;;3.92;3.53;;;;;;;;;;5057080;28;20397;-82
2021/08/18 08:39:44;;;;;;;4.70;3.70;;;;;;;;;;5062505;28;20440;-80
2021/08/18 08:42:10;;;;;;;4.03;3.45;;;;;;;;;;5062949;28;20405;-82
2021/08/18 08:44:38;;;;;;;6.18;3.92;;;;;;;;;;5047132;28;20390;-81
2021/08/18 08:47:06;;;;;;;3.67;3.38;;;;;;;;;;5050354;28;20818;-80
2021/08/18 08:49:33;;;;;;;4.70;3.28;;;;;;;;;;5051122;28;20390;-82
2021/08/18 08:51:59;;;;;;;3.80;3.40;;;;;;;;;;5053588;28;20381;-78
2021/08/18 08:54:25;;;;;;;4.32;3.10;;;;;;;;;;5071218;28;20377;-80
2021/08/18 08:56:52;;;;;;;4.33;3.20;;;;;;;;;;5071147;28;20871;-79
2021/08/18 08:59:18;;;;;;;3.97;3.08;;;;;;;;;;5069988;28;20421;-79
2021/08/18 09:02:02;;;;;;;3.23;2.93;;;;;;;;;;5071254;28;20433;-81
2021/08/18 09:04:28;;;;;;;4.38;3.17;;;;;;;;;;5069432;28;20452;-81
2021/08/18 09:07:04;;;;;;;3.90;2.92;;;;;;;;;;5073239;28;20955;-81
2021/08/18 09:09:31;;;;;;;3.67;3.00;;;;;;;;;;5069500;28;20417;-79
2021/08/18 09:12:17;;;;;;;3.72;2.80;;;;;;;;;;5070591;28;20370;-81
2021/08/18 09:14:43;;;;;;;4.68;2.83;;;;;;;;;;5068593;28;20385;-81
2021/08/18 09:17:29;;;;;;;3.60;3.13;;;;;;;;;;5070664;28;20380;-79
2021/08/18 09:20:00;;;;;;;4.20;2.97;;;;;;;;;;5070116;28;20362;-81
2021/08/18 09:22:26;;;;;;;4.93;2.97;;;;;;;;;;5070473;28;20402;-81
2021/08/18 09:25:07;;;;;;;3.97;2.70;;;;;;;;;;5070867;28;20767;-80
2021/08/18 09:27:32;;;;;;;4.05;2.60;;;;;;;;;;5068421;28;20378;-81
2021/08/18 09:29:58;;;;;;;5.00;2.90;;;;;;;;;;5069580;28;20380;-79
2021/08/18 09:32:24;;;;;;;4.85;3.03;;;;;;;;;;5070611;28;20362;-79
2021/08/18 09:35:01;;;;;;;3.47;2.60;;;;;;;;;;5070269;28;20362;-80
2021/08/18 09:37:27;;;;;;;2.65;2.10;;;;;;;;;;5058369;28;20568;-81
2021/08/18 09:39:54;;;;;;;3.42;2.70;;;;;;;;;;5059661;28;20378;-79
2021/08/18 09:42:26;;;;;;;5.05;2.70;;;;;;;;;;5067207;28;20410;-82
2021/08/18 09:45:08;;;;;;;4.63;2.60;;;;;;;;;;5070433;28;20912;-82
2021/08/18 09:47:34;;;;;;;3.22;2.63;;;;;;;;;;5068645;28;20398;-80
2021/08/18 09:50:00;;;;;;;3.58;2.58;;;;;;;;;;5054610;28;20417;-81
2021/08/18 09:52:26;;;;;;;5.67;2.60;;;;;;;;;;5070657;28;20374;-79
2021/08/18 09:54:52;;;;;;;4.93;3.00;;;;;;;;;;5060012;28;20394;-81
2021/08/18 09:57:29;;;;;;;3.35;2.78;;;;;;;;;;5069650;28;20386;-83
2021/08/18 09:59:56;;;;;;;5.40;3.55;;;;;;;;;;5069893;28;20413;-80
2021/08/18 10:02:23;;;;;;;3.30;2.70;;;;;;;;;;5069676;28;20452;-81
2021/08/18 10:04:49;;;;;;;2.60;2.40;;;;;;;;;;5069858;28;20713;-81
2021/08/18 10:07:15;;;;;;;6.30;2.90;;;;;;;;;;5069383;28;20488;-79
2021/08/18 10:09:41;;;;;;;2.78;2.40;;;;;;;;;;5069401;28;20385;-80
2021/08/18 10:12:07;;;;;;;3.20;2.30;;;;;;;;;;5069701;28;20370;-79
2021/08/18 10:14:33;;;;;;;4.35;2.75;;;;;;;;;;5043211;28;20477;-82
2021/08/18 10:16:59;;;;;;;3.22;2.70;;;;;;;;;;5069950;28;20406;-79
2021/08/18 10:19:25;;;;;;;4.13;2.90;;;;;;;;;;5069098;28;20420;-82
2021/08/18 10:21:58;;;;;;;4.05;2.97;;;;;;;;;;5059920;28;20417;-80
2021/08/18 10:24:28;;;;;;;3.08;2.30;;;;;;;;;;5070249;28;22385;-79
2021/08/18 10:26:55;;;;;;;4.97;2.75;;;;;;;;;;5068070;28;20487;-78
2021/08/18 10:29:30;;;;;;;5.22;2.70;;;;;;;;;;5069661;28;20365;-82
2021/08/18 10:32:05;;;;;;;5.10;2.60;;;;;;;;;;5066752;28;20867;-78
2021/08/18 10:34:36;;;;;;;3.10;2.40;;;;;;;;;;5066195;28;20370;-81
2021/08/18 10:37:07;;;;;;;5.68;2.97;;;;;;;;;;5069052;28;20363;-78
2021/08/18 10:39:37;;;;;;;8.45;3.50;;;;;;;;;;5056030;28;20730;-79
2021/08/18 10:42:13;;;;;;;5.55;3.35;;;;;;;;;;5068129;28;20394;-80
2021/08/18 10:44:39;;;;;;;8.00;3.45;;;;;;;;;;5067915;28;20389;-82
2021/08/18 10:47:12;;;;;;;4.40;3.23;;;;;;;;;;5069861;28;20369;-81
2021/08/18 10:49:38;;;;;;;4.22;2.83;;;;;;;;;;5055154;28;20422;-80
2021/08/18 10:52:05;;;;;;;4.15;2.72;;;;;;;;;;5067758;28;20360;-78
2021/08/18 10:54:34;;;;;;;3.77;2.70;;;;;;;;;;5061920;28;20398;-81
2021/08/18 10:57:02;;;;;;;4.60;2.90;;;;;;;;;;5063149;28;20955;-82
2021/08/18 10:59:37;;;;;;;4.88;3.10;;;;;;;;;;5050236;28;20472;-79
2021/08/18 11:02:10;;;;;;;4.70;3.17;;;;;;;;;;5061062;28;20496;-80
2021/08/18 11:04:43;;;;;;;5.22;3.28;;;;;;;;;;5046544;28;20391;-82
2021/08/18 11:07:09;;;;;;;5.70;2.88;;;;;;;;;;5057915;28;20401;-82
2021/08/18 11:09:50;;;;;;;2.97;2.50;;;;;;;;;;5046316;28;20412;-81
2021/08/18 11:12:35;;;;;;;3.15;2.67;;;;;;;;;;5061509;28;20469;-82
2021/08/18 11:15:01;;;;;;;3.70;2.80;;;;;;;;;;5053999;28;20386;-81
2021/08/18 11:17:28;;;;;;;4.57;2.73;;;;;;;;;;5055543;28;20385;-79
2021/08/18 11:19:54;;;;;;;4.90;3.42;;;;;;;;;;5067036;28;20422;-79
2021/08/18 11:22:20;;;;;;;5.03;2.87;;;;;;;;;;5068673;28;20394;-78
2021/08/18 11:24:46;;;;;;;5.30;2.70;;;;;;;;;;5068332;28;20728;-80
2021/08/18 11:27:17;;;;;;;4.85;2.72;;;;;;;;;;5065510;28;20894;-79
2021/08/18 11:29:43;;;;;;;7.07;2.67;;;;;;;;;;5066432;28;20402;-80
2021/08/18 11:32:09;;;;;;;4.97;2.70;;;;;;;;;;5067714;28;20370;-80
2021/08/18 11:34:37;;;;;;;4.20;2.70;;;;;;;;;;5065481;28;20394;-82
2021/08/18 11:37:05;;;;;;;3.30;2.77;;;;;;;;;;5048161;28;20810;-82
2021/08/18 11:39:34;;;;;;;4.43;2.80;;;;;;;;;;5059780;28;20374;-80
2021/08/18 11:42:09;;;;;;;7.53;3.00;;;;;;;;;;5058978;28;20414;-80
2021/08/18 11:44:34;;;;;;;5.50;2.92;;;;;;;;;;5058641;28;20911;-79
2021/08/18 11:47:07;;;;;;;4.75;3.00;;;;;;;;;;5058994;28;20501;-82
2021/08/18 11:49:34;;;;;;;6.55;3.20;;;;;;;;;;5059190;28;20382;-81
2021/08/18 11:52:00;;;;;;;6.80;2.50;;;;;;;;;;5046629;28;20472;-82
2021/08/18 11:54:26;;;;;;;4.70;2.50;;;;;;;;;;5061322;28;20378;-82
2021/08/18 11:57:00;;;;;;;6.13;2.80;;;;;;;;;;5044933;28;20480;-83
2021/08/18 11:59:26;;;;;;;8.18;3.30;;;;;;;;;;5062779;28;20370;-83
2021/08/18 12:01:52;;;;;;;7.50;2.87;;;;;;;;;;5062949;28;20408;-82
2021/08/18 12:04:21;;;;;;;4.85;2.55;;;;;;;;;;5062690;28;20898;-81
2021/08/18 12:06:47;;;;;;;4.50;2.72;;;;;;;;;;5059550;28;20378;-81
2021/08/18 12:09:23;;;;;;;4.07;2.60;;;;;;;;;;5056329;28;20363;-84
2021/08/18 12:11:49;;;;;;;3.10;2.80;;;;;;;;;;5056592;28;20430;-80
2021/08/18 12:14:16;;;;;;;6.15;2.83;;;;;;;;;;5061323;28;20771;-81
2021/08/18 12:16:43;;;;;;;4.95;2.85;;;;;;;;;;5064343;28;20726;-81
2021/08/18 12:19:15;;;;;;;4.32;2.70;;;;;;;;;;5065872;28;20366;-78
2021/08/18 12:21:41;;;;;;;5.18;2.70;;;;;;;;;;5068263;28;20374;-79
2021/08/18 12:24:15;;;;;;;6.03;2.95;;;;;;;;;;5069301;28;20408;-80
2021/08/18 12:26:42;;;;;;;6.53;3.20;;;;;;;;;;5070867;28;20405;-81
2021/08/18 12:29:09;;;;;;;3.42;2.70;;;;;;;;;;5070456;28;20499;-82
2021/08/18 12:31:54;;;;;;;2.95;2.33;;;;;;;;;;5071377;28;20369;-81
2021/08/18 12:34:49;;;;;;;2.75;2.28;;;;;;;;;;5068212;28;20376;-80
2021/08/18 12:37:19;;;;;;;3.25;2.03;;;;;;;;;;5049320;28;20386;-81
2021/08/18 12:39:46;;;;;;;3.67;2.17;;;;;;;;;;5049524;28;20390;-82
2021/08/18 12:42:22;;;;;;;4.25;2.20;;;;;;;;;;5061407;28;20429;-79
2021/08/18 12:44:58;;;;;;;6.90;2.47;;;;;;;;;;5069208;28;20409;-81
2021/08/18 12:47:29;;;;;;;5.20;2.50;;;;;;;;;;5070955;28;20401;-80
2021/08/18 12:49:55;;;;;;;4.45;2.05;;;;;;;;;;5070269;28;20374;-80
2021/08/18 12:52:21;;;;;;;2.88;2.03;;;;;;;;;;5071591;28;20373;-81
2021/08/18 12:54:47;;;;;;;3.83;2.10;;;;;;;;;;5071639;28;20806;-83
2021/08/18 12:57:13;;;;;;;2.70;1.60;;;;;;;;;;5053759;28;20365;-80
2021/08/18 12:59:40;;;;;;;5.63;1.90;;;;;;;;;;5071355;28;20724;-82
2021/08/18 13:02:07;;;;;;;2.70;1.40;;;;;;;;;;5053211;28;20405;-77
2021/08/18 13:04:33;;;;;;;3.83;1.85;;;;;;;;;;5071514;28;20422;-80
2021/08/18 13:06:59;;;;;;;2.20;1.40;;;;;;;;;;5071738;28;20793;-80
2021/08/18 13:09:25;;;;;;;3.47;1.38;;;;;;;;;;5070356;28;20497;-80
2021/08/18 13:11:51;;;;;;;1.93;1.60;;;;;;;;;;5053909;28;20473;-80
2021/08/18 13:14:18;;;;;;;2.63;1.87;;;;;;;;;;5071295;28;20377;-79
2021/08/18 13:16:45;;;;;;;3.72;2.05;;;;;;;;;;5070649;28;20620;-80
2021/08/18 13:19:11;;;;;;;2.90;2.00;;;;;;;;;;5071269;28;20374;-80
2021/08/18 13:21:37;;;;;;;2.28;1.90;;;;;;;;;;5071447;28;20465;-82
2021/08/18 13:24:03;;;;;;;2.00;1.80;;;;;;;;;;5072467;28;20424;-83
2021/08/18 13:26:29;;;;;;;2.38;1.60;;;;;;;;;;5073427;28;20451;-84
2021/08/18 13:28:56;;;;;;;2.55;1.95;;;;;;;;;;5070541;28;20701;-85
2021/08/18 13:31:22;;;;;;;3.55;1.95;;;;;;;;;;5044996;28;20408;-81
2021/08/18 13:33:48;;;;;;;2.90;1.90;;;;;;;;;;5069780;28;20423;-82
2021/08/18 13:36:14;;;;;;;1.73;1.63;;;;;;;;;;5051767;28;20796;-81
2021/08/18 13:38:40;;;;;;;1.90;1.70;;;;;;;;;;5070590;28;20405;-77
2021/08/18 13:41:07;;;;;;;2.03;1.83;;;;;;;;;;5070822;28;20788;-82
2021/08/18 13:43:33;;;;;;;3.90;1.90;;;;;;;;;;5071153;28;20405;-80
2021/08/18 13:45:58;;;;;;;2.97;2.00;;;;;;;;;;5071417;28;20357;-81
2021/08/18 13:48:25;;;;;;;2.10;1.80;;;;;;;;;;5071325;28;20872;-79
2021/08/18 13:50:51;;;;;;;3.72;2.20;;;;;;;;;;5071808;28;20389;-80
2021/08/18 13:53:17;;;;;;;3.42;2.20;;;;;;;;;;5071445;28;20962;-79
2021/08/18 13:55:43;;;;;;;4.88;2.42;;;;;;;;;;5072075;28;20373;-79
2021/08/18 13:58:11;;;;;;;4.88;2.58;;;;;;;;;;5071058;28;20373;-82
2021/08/18 14:00:37;;;;;;;3.17;2.55;;;;;;;;;;5054287;28;20744;-80
2021/08/18 14:03:03;;;;;;;3.35;2.60;;;;;;;;;;5069627;28;20456;-84
2021/08/18 14:05:29;;;;;;;3.88;2.47;;;;;;;;;;5072065;28;20375;-83
2021/08/18 14:07:56;;;;;;;5.00;2.60;;;;;;;;;;5057499;28;20448;-81
2021/08/18 14:10:27;;;;;;;4.10;2.40;;;;;;;;;;5066377;28;20378;-82
2021/08/18 14:12:53;;;;;;;4.30;2.60;;;;;;;;;;5078131;28;20392;-82
2021/08/18 14:15:21;;;;;;;3.97;2.55;;;;;;;;;;5060848;28;20695;-83
2021/08/18 14:17:47;;;;;;;4.55;2.30;;;;;;;;;;5073935;28;20462;-81
2021/08/18 14:20:13;;;;;;;2.45;2.22;;;;;;;;;;5053262;28;20394;-81
2021/08/18 14:22:39;;;;;;;2.80;2.20;;;;;;;;;;5054354;28;20409;-82
2021/08/18 14:25:06;;;;;;;3.97;2.13;;;;;;;;;;5069104;28;20366;-83
2021/08/18 14:27:32;;;;;;;2.22;2.00;;;;;;;;;;5069015;28;20374;-85
2021/08/18 14:29:58;;;;;;;5.30;2.00;;;;;;;;;;5054856;28;20942;-82